sensor_id;sensor_type;location;lat;lon;timestamp;P1;durP1;ratioP1;P2;durP2;ratioP2
31454;SDS011;18084;53.028;8.834;2022-08-21T00:03:09;6.53;;;2.67;;
31454;SDS011;18084;53.028;8.834;2022-08-21T00:05:36;10.23;;;3.05;;
31454;SDS011;18084;53.028;8.834;2022-08-21T00:08:04;10.68;;;2.70;;
31454;SDS011;18084;53.028;8.834;2022-08-21T00:10:31;6.40;;;2.65;;
31454;SDS011;18084;53.028;8.834;2022-08-21T00:12:57;10.43;;;2.90;;
31454;SDS011;18084;53.028;8.834;2022-08-21T00:17:52;9.15;;;3.25;;
31454;SDS011;18084;53.028;8.834;2022-08-21T00:20:19;7.10;;;2.90;;
31454;SDS011;18084;53.028;8.834;2022-08-21T00:22:46;5.75;;;2.28;;
31454;SDS011;18084;53.028;8.834;2022-08-21T00:27:38;8.90;;;2.70;;
31454;SDS011;18084;53.028;8.834;2022-08-21T00:34:57;7.32;;;2.67;;
31454;SDS011;18084;53.028;8.834;2022-08-21T00:39:48;6.07;;;2.58;;
31454;SDS011;18084;53.028;8.834;2022-08-21T00:44:41;6.85;;;2.40;;
31454;SDS011;18084;53.028;8.834;2022-08-21T00:47:08;5.72;;;2.63;;
31454;SDS011;18084;53.028;8.834;2022-08-21T00:52:00;4.95;;;2.47;;
31454;SDS011;18084;53.028;8.834;2022-08-21T00:54:27;8.25;;;2.80;;
31454;SDS011;18084;53.028;8.834;2022-08-21T00:57:03;5.88;;;2.05;;
31454;SDS011;18084;53.028;8.834;2022-08-21T00:59:33;10.55;;;2.67;;
31454;SDS011;18084;53.028;8.834;2022-08-21T01:02:03;7.40;;;3.00;;
31454;SDS011;18084;53.028;8.834;2022-08-21T01:04:32;6.90;;;2.28;;
31454;SDS011;18084;53.028;8.834;2022-08-21T01:06:58;8.32;;;3.08;;
31454;SDS011;18084;53.028;8.834;2022-08-21T01:11:49;5.22;;;2.70;;
31454;SDS011;18084;53.028;8.834;2022-08-21T01:16:42;9.00;;;3.60;;
31454;SDS011;18084;53.028;8.834;2022-08-21T01:19:11;15.95;;;3.10;;
31454;SDS011;18084;53.028;8.834;2022-08-21T01:21:38;7.63;;;2.60;;
31454;SDS011;18084;53.028;8.834;2022-08-21T01:24:04;6.47;;;3.10;;
31454;SDS011;18084;53.028;8.834;2022-08-21T01:26:31;7.22;;;3.67;;
31454;SDS011;18084;53.028;8.834;2022-08-21T01:29:14;9.93;;;3.53;;
31454;SDS011;18084;53.028;8.834;2022-08-21T01:31:41;6.50;;;3.35;;
31454;SDS011;18084;53.028;8.834;2022-08-21T01:36:33;7.10;;;3.35;;
31454;SDS011;18084;53.028;8.834;2022-08-21T01:41:25;7.50;;;3.67;;
31454;SDS011;18084;53.028;8.834;2022-08-21T01:43:50;7.22;;;3.28;;
31454;SDS011;18084;53.028;8.834;2022-08-21T01:48:42;13.27;;;4.45;;
31454;SDS011;18084;53.028;8.834;2022-08-21T01:53:34;15.40;;;3.40;;
31454;SDS011;18084;53.028;8.834;2022-08-21T01:56:01;8.57;;;3.25;;
31454;SDS011;18084;53.028;8.834;2022-08-21T01:58:28;8.20;;;3.13;;
31454;SDS011;18084;53.028;8.834;2022-08-21T02:00:54;13.13;;;3.80;;
31454;SDS011;18084;53.028;8.834;2022-08-21T02:05:45;8.93;;;3.40;;
31454;SDS011;18084;53.028;8.834;2022-08-21T02:10:36;9.40;;;3.45;;
31454;SDS011;18084;53.028;8.834;2022-08-21T02:15:28;5.07;;;2.85;;
31454;SDS011;18084;53.028;8.834;2022-08-21T02:17:56;6.45;;;3.22;;
31454;SDS011;18084;53.028;8.834;2022-08-21T02:20:26;6.53;;;3.95;;
31454;SDS011;18084;53.028;8.834;2022-08-21T02:22:57;10.93;;;3.83;;
31454;SDS011;18084;53.028;8.834;2022-08-21T02:27:49;5.53;;;2.60;;
31454;SDS011;18084;53.028;8.834;2022-08-21T02:30:20;8.63;;;3.58;;
31454;SDS011;18084;53.028;8.834;2022-08-21T02:32:52;7.43;;;3.13;;
31454;SDS011;18084;53.028;8.834;2022-08-21T02:40:18;7.85;;;3.30;;
31454;SDS011;18084;53.028;8.834;2022-08-21T02:42:47;9.90;;;2.80;;
31454;SDS011;18084;53.028;8.834;2022-08-21T02:45:13;7.35;;;3.35;;
31454;SDS011;18084;53.028;8.834;2022-08-21T02:47:39;8.45;;;3.42;;
31454;SDS011;18084;53.028;8.834;2022-08-21T02:50:11;8.77;;;3.25;;
31454;SDS011;18084;53.028;8.834;2022-08-21T02:55:02;6.57;;;3.33;;
31454;SDS011;18084;53.028;8.834;2022-08-21T02:59:53;8.63;;;3.85;;
31454;SDS011;18084;53.028;8.834;2022-08-21T03:04:46;10.45;;;3.85;;
31454;SDS011;18084;53.028;8.834;2022-08-21T03:09:37;5.72;;;3.00;;
31454;SDS011;18084;53.028;8.834;2022-08-21T03:14:29;9.90;;;3.28;;
31454;SDS011;18084;53.028;8.834;2022-08-21T03:19:23;6.40;;;3.40;;
31454;SDS011;18084;53.028;8.834;2022-08-21T03:24:14;8.07;;;3.15;;
31454;SDS011;18084;53.028;8.834;2022-08-21T03:29:05;9.10;;;3.78;;
31454;SDS011;18084;53.028;8.834;2022-08-21T03:31:32;10.07;;;3.85;;
31454;SDS011;18084;53.028;8.834;2022-08-21T03:36:23;7.97;;;3.72;;
31454;SDS011;18084;53.028;8.834;2022-08-21T03:41:15;9.45;;;3.40;;
31454;SDS011;18084;53.028;8.834;2022-08-21T03:46:06;5.43;;;3.42;;
31454;SDS011;18084;53.028;8.834;2022-08-21T03:50:58;7.68;;;3.53;;
31454;SDS011;18084;53.028;8.834;2022-08-21T03:53:26;4.22;;;2.90;;
31454;SDS011;18084;53.028;8.834;2022-08-21T03:58:18;13.55;;;4.28;;
31454;SDS011;18084;53.028;8.834;2022-08-21T04:00:47;8.10;;;3.53;;
31454;SDS011;18084;53.028;8.834;2022-08-21T04:03:15;11.32;;;4.28;;
31454;SDS011;18084;53.028;8.834;2022-08-21T05:46:11;4.03;;;2.00;;
31454;SDS011;18084;53.028;8.834;2022-08-21T05:48:36;12.55;;;2.50;;
31454;SDS011;18084;53.028;8.834;2022-08-21T05:51:09;10.23;;;2.40;;
31454;SDS011;18084;53.028;8.834;2022-08-21T05:53:36;5.28;;;2.10;;
31454;SDS011;18084;53.028;8.834;2022-08-21T05:56:03;5.82;;;2.30;;
31454;SDS011;18084;53.028;8.834;2022-08-21T05:58:30;6.75;;;2.90;;
31454;SDS011;18084;53.028;8.834;2022-08-21T06:00:57;11.98;;;3.78;;
31454;SDS011;18084;53.028;8.834;2022-08-21T06:03:24;6.78;;;2.58;;
31454;SDS011;18084;53.028;8.834;2022-08-21T06:05:52;6.35;;;2.53;;
31454;SDS011;18084;53.028;8.834;2022-08-21T06:08:18;6.50;;;3.00;;
31454;SDS011;18084;53.028;8.834;2022-08-21T06:10:45;7.82;;;2.63;;
31454;SDS011;18084;53.028;8.834;2022-08-21T06:13:11;7.43;;;2.88;;
31454;SDS011;18084;53.028;8.834;2022-08-21T06:15:37;10.65;;;3.47;;
31454;SDS011;18084;53.028;8.834;2022-08-21T06:18:03;6.53;;;2.35;;
31454;SDS011;18084;53.028;8.834;2022-08-21T06:20:29;8.23;;;2.92;;
31454;SDS011;18084;53.028;8.834;2022-08-21T06:22:55;10.25;;;3.45;;
31454;SDS011;18084;53.028;8.834;2022-08-21T06:25:20;5.45;;;3.08;;
31454;SDS011;18084;53.028;8.834;2022-08-21T06:27:46;7.35;;;3.67;;
31454;SDS011;18084;53.028;8.834;2022-08-21T06:30:12;4.55;;;2.80;;
31454;SDS011;18084;53.028;8.834;2022-08-21T06:32:38;8.45;;;3.15;;
31454;SDS011;18084;53.028;8.834;2022-08-21T06:35:04;4.47;;;2.63;;
31454;SDS011;18084;53.028;8.834;2022-08-21T06:37:30;6.32;;;3.65;;
31454;SDS011;18084;53.028;8.834;2022-08-21T06:39:57;6.60;;;3.47;;
31454;SDS011;18084;53.028;8.834;2022-08-21T06:42:22;5.85;;;3.38;;
31454;SDS011;18084;53.028;8.834;2022-08-21T06:44:48;9.88;;;4.30;;
31454;SDS011;18084;53.028;8.834;2022-08-21T06:47:14;10.55;;;3.90;;
31454;SDS011;18084;53.028;8.834;2022-08-21T06:49:40;6.63;;;3.38;;
31454;SDS011;18084;53.028;8.834;2022-08-21T06:52:10;6.47;;;4.18;;
31454;SDS011;18084;53.028;8.834;2022-08-21T06:54:37;7.95;;;3.90;;
31454;SDS011;18084;53.028;8.834;2022-08-21T06:57:03;12.10;;;4.03;;
31454;SDS011;18084;53.028;8.834;2022-08-21T06:59:28;7.10;;;3.72;;
31454;SDS011;18084;53.028;8.834;2022-08-21T07:01:54;9.20;;;3.83;;
31454;SDS011;18084;53.028;8.834;2022-08-21T07:04:19;7.55;;;3.58;;
31454;SDS011;18084;53.028;8.834;2022-08-21T07:06:45;10.95;;;4.10;;
31454;SDS011;18084;53.028;8.834;2022-08-21T07:09:11;11.50;;;3.97;;
31454;SDS011;18084;53.028;8.834;2022-08-21T07:11:36;6.47;;;3.92;;
31454;SDS011;18084;53.028;8.834;2022-08-21T07:14:03;10.25;;;3.97;;
31454;SDS011;18084;53.028;8.834;2022-08-21T07:16:29;9.68;;;3.88;;
31454;SDS011;18084;53.028;8.834;2022-08-21T07:18:54;6.43;;;3.38;;
31454;SDS011;18084;53.028;8.834;2022-08-21T07:21:20;9.38;;;4.05;;
31454;SDS011;18084;53.028;8.834;2022-08-21T07:23:47;7.10;;;3.33;;
31454;SDS011;18084;53.028;8.834;2022-08-21T07:26:17;12.02;;;3.38;;
31454;SDS011;18084;53.028;8.834;2022-08-21T07:28:45;10.35;;;3.10;;
31454;SDS011;18084;53.028;8.834;2022-08-21T07:31:13;7.45;;;2.97;;
31454;SDS011;18084;53.028;8.834;2022-08-21T07:33:41;7.45;;;3.17;;
31454;SDS011;18084;53.028;8.834;2022-08-21T07:36:07;7.55;;;3.58;;
31454;SDS011;18084;53.028;8.834;2022-08-21T07:38:33;9.18;;;3.35;;
31454;SDS011;18084;53.028;8.834;2022-08-21T07:40:59;7.07;;;2.63;;
31454;SDS011;18084;53.028;8.834;2022-08-21T07:43:26;9.70;;;3.33;;
31454;SDS011;18084;53.028;8.834;2022-08-21T07:45:53;10.65;;;2.92;;
31454;SDS011;18084;53.028;8.834;2022-08-21T07:48:20;9.32;;;2.63;;
31454;SDS011;18084;53.028;8.834;2022-08-21T07:50:46;5.00;;;2.10;;
31454;SDS011;18084;53.028;8.834;2022-08-21T07:53:12;9.38;;;3.00;;
31454;SDS011;18084;53.028;8.834;2022-08-21T07:55:39;9.07;;;2.80;;
31454;SDS011;18084;53.028;8.834;2022-08-21T07:58:04;6.40;;;2.63;;
31454;SDS011;18084;53.028;8.834;2022-08-21T08:00:30;7.68;;;2.40;;
31454;SDS011;18084;53.028;8.834;2022-08-21T08:02:56;5.13;;;2.00;;
31454;SDS011;18084;53.028;8.834;2022-08-21T08:05:26;5.38;;;2.28;;
31454;SDS011;18084;53.028;8.834;2022-08-21T08:07:53;7.60;;;2.00;;
31454;SDS011;18084;53.028;8.834;2022-08-21T08:10:20;8.32;;;2.40;;
31454;SDS011;18084;53.028;8.834;2022-08-21T08:12:46;6.05;;;2.03;;
31454;SDS011;18084;53.028;8.834;2022-08-21T08:15:17;7.30;;;2.45;;
31454;SDS011;18084;53.028;8.834;2022-08-21T08:17:44;6.03;;;2.30;;
31454;SDS011;18084;53.028;8.834;2022-08-21T08:20:10;6.28;;;2.38;;
31454;SDS011;18084;53.028;8.834;2022-08-21T08:22:38;5.07;;;1.70;;
31454;SDS011;18084;53.028;8.834;2022-08-21T08:25:04;4.50;;;1.80;;
31454;SDS011;18084;53.028;8.834;2022-08-21T08:27:31;3.80;;;1.75;;
31454;SDS011;18084;53.028;8.834;2022-08-21T08:29:56;5.10;;;2.03;;
31454;SDS011;18084;53.028;8.834;2022-08-21T08:32:22;3.40;;;1.40;;
31454;SDS011;18084;53.028;8.834;2022-08-21T08:34:48;5.93;;;1.60;;
31454;SDS011;18084;53.028;8.834;2022-08-21T08:37:16;5.00;;;2.00;;
31454;SDS011;18084;53.028;8.834;2022-08-21T08:39:42;4.22;;;1.95;;
31454;SDS011;18084;53.028;8.834;2022-08-21T08:42:09;5.18;;;1.63;;
31454;SDS011;18084;53.028;8.834;2022-08-21T08:44:40;8.32;;;2.08;;
31454;SDS011;18084;53.028;8.834;2022-08-21T08:47:10;3.70;;;1.75;;
31454;SDS011;18084;53.028;8.834;2022-08-21T08:49:41;4.22;;;1.70;;
31454;SDS011;18084;53.028;8.834;2022-08-21T08:52:27;4.70;;;1.60;;
31454;SDS011;18084;53.028;8.834;2022-08-21T08:55:05;4.10;;;1.58;;
31454;SDS011;18084;53.028;8.834;2022-08-21T08:57:35;8.52;;;1.70;;
31454;SDS011;18084;53.028;8.834;2022-08-21T09:00:07;6.20;;;2.33;;
31454;SDS011;18084;53.028;8.834;2022-08-21T09:02:38;5.10;;;1.98;;
31454;SDS011;18084;53.028;8.834;2022-08-21T09:05:05;7.63;;;2.20;;
31454;SDS011;18084;53.028;8.834;2022-08-21T09:07:47;8.23;;;2.05;;
31454;SDS011;18084;53.028;8.834;2022-08-21T09:10:49;9.55;;;2.22;;
31454;SDS011;18084;53.028;8.834;2022-08-21T09:16:33;6.30;;;2.33;;
31454;SDS011;18084;53.028;8.834;2022-08-21T09:18:58;10.25;;;3.13;;
31454;SDS011;18084;53.028;8.834;2022-08-21T09:27:28;8.07;;;2.40;;
31454;SDS011;18084;53.028;8.834;2022-08-21T09:29:56;6.25;;;2.13;;
31454;SDS011;18084;53.028;8.834;2022-08-21T09:32:24;8.65;;;2.20;;
31454;SDS011;18084;53.028;8.834;2022-08-21T09:34:56;8.10;;;2.10;;
31454;SDS011;18084;53.028;8.834;2022-08-21T09:37:23;7.93;;;2.60;;
31454;SDS011;18084;53.028;8.834;2022-08-21T09:39:50;8.20;;;2.22;;
31454;SDS011;18084;53.028;8.834;2022-08-21T09:42:24;5.68;;;2.53;;
31454;SDS011;18084;53.028;8.834;2022-08-21T09:45:04;6.47;;;2.33;;
31454;SDS011;18084;53.028;8.834;2022-08-21T09:47:39;5.78;;;2.10;;
31454;SDS011;18084;53.028;8.834;2022-08-21T09:50:16;13.55;;;2.50;;
31454;SDS011;18084;53.028;8.834;2022-08-21T09:52:45;8.02;;;2.28;;
31454;SDS011;18084;53.028;8.834;2022-08-21T09:55:16;9.45;;;2.15;;
31454;SDS011;18084;53.028;8.834;2022-08-21T09:58:04;13.45;;;2.58;;
31454;SDS011;18084;53.028;8.834;2022-08-21T10:00:32;13.07;;;2.33;;
31454;SDS011;18084;53.028;8.834;2022-08-21T10:03:09;9.63;;;2.47;;
31454;SDS011;18084;53.028;8.834;2022-08-21T10:05:40;5.28;;;2.08;;
31454;SDS011;18084;53.028;8.834;2022-08-21T10:08:16;7.75;;;2.40;;
31454;SDS011;18084;53.028;8.834;2022-08-21T10:10:43;6.75;;;2.13;;
31454;SDS011;18084;53.028;8.834;2022-08-21T10:13:13;6.70;;;2.00;;
31454;SDS011;18084;53.028;8.834;2022-08-21T10:16:14;7.65;;;2.72;;
31454;SDS011;18084;53.028;8.834;2022-08-21T10:22:08;8.73;;;1.90;;
31454;SDS011;18084;53.028;8.834;2022-08-21T10:27:34;5.57;;;2.25;;
31454;SDS011;18084;53.028;8.834;2022-08-21T10:30:19;11.25;;;2.25;;
31454;SDS011;18084;53.028;8.834;2022-08-21T10:35:43;6.00;;;1.77;;
31454;SDS011;18084;53.028;8.834;2022-08-21T10:41:28;4.32;;;1.55;;
31454;SDS011;18084;53.028;8.834;2022-08-21T10:50:12;7.75;;;2.08;;
31454;SDS011;18084;53.028;8.834;2022-08-21T10:53:16;4.40;;;2.17;;
31454;SDS011;18084;53.028;8.834;2022-08-21T10:55:59;7.97;;;1.90;;
31454;SDS011;18084;53.028;8.834;2022-08-21T10:58:37;7.70;;;2.15;;
31454;SDS011;18084;53.028;8.834;2022-08-21T11:01:12;5.63;;;1.65;;
31454;SDS011;18084;53.028;8.834;2022-08-21T11:03:46;4.97;;;1.60;;
31454;SDS011;18084;53.028;8.834;2022-08-21T11:06:27;6.15;;;1.55;;
31454;SDS011;18084;53.028;8.834;2022-08-21T11:08:57;4.90;;;1.88;;
31454;SDS011;18084;53.028;8.834;2022-08-21T11:11:41;6.05;;;1.88;;
31454;SDS011;18084;53.028;8.834;2022-08-21T11:14:24;5.32;;;1.45;;
31454;SDS011;18084;53.028;8.834;2022-08-21T11:17:07;5.55;;;1.60;;
31454;SDS011;18084;53.028;8.834;2022-08-21T11:19:59;3.63;;;1.40;;
31454;SDS011;18084;53.028;8.834;2022-08-21T11:22:35;7.03;;;1.77;;
31454;SDS011;18084;53.028;8.834;2022-08-21T11:25:07;8.43;;;1.70;;
31454;SDS011;18084;53.028;8.834;2022-08-21T11:27:40;6.32;;;1.60;;
31454;SDS011;18084;53.028;8.834;2022-08-21T11:30:10;4.03;;;1.70;;
31454;SDS011;18084;53.028;8.834;2022-08-21T11:32:47;5.97;;;1.75;;
31454;SDS011;18084;53.028;8.834;2022-08-21T11:35:23;5.78;;;1.55;;
31454;SDS011;18084;53.028;8.834;2022-08-21T11:40:59;5.80;;;2.07;;
31454;SDS011;18084;53.028;8.834;2022-08-21T11:43:54;6.28;;;1.70;;
31454;SDS011;18084;53.028;8.834;2022-08-21T11:54:31;5.95;;;3.35;;
31454;SDS011;18084;53.028;8.834;2022-08-21T13:46:34;2.85;;;1.52;;
31454;SDS011;18084;53.028;8.834;2022-08-21T13:49:01;5.30;;;1.70;;
31454;SDS011;18084;53.028;8.834;2022-08-21T13:51:30;4.57;;;1.52;;
31454;SDS011;18084;53.028;8.834;2022-08-21T13:53:56;4.97;;;1.85;;
31454;SDS011;18084;53.028;8.834;2022-08-21T13:58:59;7.57;;;2.17;;
31454;SDS011;18084;53.028;8.834;2022-08-21T14:01:34;7.63;;;1.40;;
31454;SDS011;18084;53.028;8.834;2022-08-21T14:04:20;6.90;;;1.98;;
31454;SDS011;18084;53.028;8.834;2022-08-21T14:06:49;3.63;;;1.50;;
31454;SDS011;18084;53.028;8.834;2022-08-21T14:11:59;8.70;;;1.98;;
31454;SDS011;18084;53.028;8.834;2022-08-21T14:14:30;5.65;;;1.55;;
31454;SDS011;18084;53.028;8.834;2022-08-21T14:17:00;3.50;;;1.50;;
31454;SDS011;18084;53.028;8.834;2022-08-21T14:19:38;4.93;;;1.40;;
31454;SDS011;18084;53.028;8.834;2022-08-21T14:22:23;7.75;;;1.95;;
31454;SDS011;18084;53.028;8.834;2022-08-21T14:25:28;4.90;;;1.50;;
31454;SDS011;18084;53.028;8.834;2022-08-21T14:28:43;4.32;;;1.50;;
31454;SDS011;18084;53.028;8.834;2022-08-21T14:30:51;11.65;;;1.60;;
31454;SDS011;18084;53.028;8.834;2022-08-21T14:33:23;7.00;;;1.55;;
31454;SDS011;18084;53.028;8.834;2022-08-21T14:35:52;9.73;;;2.38;;
31454;SDS011;18084;53.028;8.834;2022-08-21T14:38:19;3.75;;;1.58;;
31454;SDS011;18084;53.028;8.834;2022-08-21T14:40:49;3.88;;;2.08;;
31454;SDS011;18084;53.028;8.834;2022-08-21T14:43:19;4.18;;;1.83;;
31454;SDS011;18084;53.028;8.834;2022-08-21T14:45:45;4.63;;;1.40;;
31454;SDS011;18084;53.028;8.834;2022-08-21T14:48:12;4.15;;;2.08;;
31454;SDS011;18084;53.028;8.834;2022-08-21T14:50:38;4.55;;;1.67;;
31454;SDS011;18084;53.028;8.834;2022-08-21T14:53:03;9.30;;;2.08;;
31454;SDS011;18084;53.028;8.834;2022-08-21T14:55:29;3.53;;;1.60;;
31454;SDS011;18084;53.028;8.834;2022-08-21T14:58:16;4.40;;;1.95;;
31454;SDS011;18084;53.028;8.834;2022-08-21T15:00:42;5.57;;;1.80;;
31454;SDS011;18084;53.028;8.834;2022-08-21T15:03:07;4.28;;;1.70;;
31454;SDS011;18084;53.028;8.834;2022-08-21T15:05:33;12.95;;;2.58;;
31454;SDS011;18084;53.028;8.834;2022-08-21T15:07:58;4.90;;;2.25;;
31454;SDS011;18084;53.028;8.834;2022-08-21T15:10:24;8.73;;;1.80;;
31454;SDS011;18084;53.028;8.834;2022-08-21T15:12:49;6.72;;;2.13;;
31454;SDS011;18084;53.028;8.834;2022-08-21T15:15:15;2.42;;;1.67;;
31454;SDS011;18084;53.028;8.834;2022-08-21T15:17:40;7.72;;;2.05;;
31454;SDS011;18084;53.028;8.834;2022-08-21T15:20:06;3.22;;;2.70;;
31454;SDS011;18084;53.028;8.834;2022-08-21T15:22:34;9.93;;;1.80;;
31454;SDS011;18084;53.028;8.834;2022-08-21T15:24:59;4.00;;;2.03;;
31454;SDS011;18084;53.028;8.834;2022-08-21T15:27:26;5.20;;;2.55;;
31454;SDS011;18084;53.028;8.834;2022-08-21T15:29:52;4.85;;;1.65;;
31454;SDS011;18084;53.028;8.834;2022-08-21T15:32:23;6.78;;;2.10;;
31454;SDS011;18084;53.028;8.834;2022-08-21T15:34:51;4.50;;;1.73;;
31454;SDS011;18084;53.028;8.834;2022-08-21T15:37:18;4.40;;;1.95;;
31454;SDS011;18084;53.028;8.834;2022-08-21T15:39:44;4.95;;;1.80;;
31454;SDS011;18084;53.028;8.834;2022-08-21T15:42:09;7.72;;;2.00;;
31454;SDS011;18084;53.028;8.834;2022-08-21T15:44:38;4.53;;;1.80;;
31454;SDS011;18084;53.028;8.834;2022-08-21T15:47:04;5.43;;;1.80;;
31454;SDS011;18084;53.028;8.834;2022-08-21T15:49:31;11.77;;;2.67;;
31454;SDS011;18084;53.028;8.834;2022-08-21T15:51:57;5.38;;;1.67;;
31454;SDS011;18084;53.028;8.834;2022-08-21T15:54:22;4.88;;;1.75;;
31454;SDS011;18084;53.028;8.834;2022-08-21T15:56:48;2.75;;;1.52;;
31454;SDS011;18084;53.028;8.834;2022-08-21T15:59:17;8.40;;;2.22;;
31454;SDS011;18084;53.028;8.834;2022-08-21T16:01:46;3.63;;;2.00;;
31454;SDS011;18084;53.028;8.834;2022-08-21T16:04:15;3.08;;;1.90;;
31454;SDS011;18084;53.028;8.834;2022-08-21T16:06:47;4.93;;;1.38;;
31454;SDS011;18084;53.028;8.834;2022-08-21T16:09:16;3.75;;;1.52;;
31454;SDS011;18084;53.028;8.834;2022-08-21T16:11:42;7.82;;;1.50;;
31454;SDS011;18084;53.028;8.834;2022-08-21T16:14:08;6.20;;;1.42;;
31454;SDS011;18084;53.028;8.834;2022-08-21T16:16:37;4.40;;;2.17;;
31454;SDS011;18084;53.028;8.834;2022-08-21T16:19:03;3.70;;;1.38;;
31454;SDS011;18084;53.028;8.834;2022-08-21T16:21:30;9.20;;;1.95;;
31454;SDS011;18084;53.028;8.834;2022-08-21T16:23:57;4.53;;;1.98;;
31454;SDS011;18084;53.028;8.834;2022-08-21T16:26:23;9.30;;;1.85;;
31454;SDS011;18084;53.028;8.834;2022-08-21T16:28:48;3.35;;;1.50;;
31454;SDS011;18084;53.028;8.834;2022-08-21T16:31:17;4.05;;;1.42;;
31454;SDS011;18084;53.028;8.834;2022-08-21T16:33:43;9.57;;;1.63;;
31454;SDS011;18084;53.028;8.834;2022-08-21T16:36:14;8.88;;;1.48;;
31454;SDS011;18084;53.028;8.834;2022-08-21T16:38:40;7.20;;;1.95;;
31454;SDS011;18084;53.028;8.834;2022-08-21T16:41:08;5.45;;;1.33;;
31454;SDS011;18084;53.028;8.834;2022-08-21T16:43:36;6.00;;;1.60;;
31454;SDS011;18084;53.028;8.834;2022-08-21T16:46:03;3.63;;;1.50;;
31454;SDS011;18084;53.028;8.834;2022-08-21T16:48:29;9.48;;;1.38;;
31454;SDS011;18084;53.028;8.834;2022-08-21T16:50:55;5.38;;;1.20;;
31454;SDS011;18084;53.028;8.834;2022-08-21T16:53:21;3.78;;;1.38;;
31454;SDS011;18084;53.028;8.834;2022-08-21T16:55:47;4.55;;;1.50;;
31454;SDS011;18084;53.028;8.834;2022-08-21T16:58:16;3.35;;;1.48;;
31454;SDS011;18084;53.028;8.834;2022-08-21T17:00:47;3.42;;;1.42;;
31454;SDS011;18084;53.028;8.834;2022-08-21T17:03:14;2.42;;;1.27;;
31454;SDS011;18084;53.028;8.834;2022-08-21T17:05:41;6.15;;;1.30;;
31454;SDS011;18084;53.028;8.834;2022-08-21T17:08:07;7.28;;;1.10;;
31454;SDS011;18084;53.028;8.834;2022-08-21T17:10:33;3.58;;;1.85;;
31454;SDS011;18084;53.028;8.834;2022-08-21T17:13:00;3.25;;;1.13;;
31454;SDS011;18084;53.028;8.834;2022-08-21T17:15:29;4.68;;;1.40;;
31454;SDS011;18084;53.028;8.834;2022-08-21T17:17:58;9.18;;;1.58;;
31454;SDS011;18084;53.028;8.834;2022-08-21T17:20:24;3.72;;;1.15;;
31454;SDS011;18084;53.028;8.834;2022-08-21T17:22:50;5.82;;;1.27;;
31454;SDS011;18084;53.028;8.834;2022-08-21T17:25:16;5.45;;;1.67;;
31454;SDS011;18084;53.028;8.834;2022-08-21T17:27:42;4.88;;;1.25;;
31454;SDS011;18084;53.028;8.834;2022-08-21T17:30:10;4.25;;;1.10;;
31454;SDS011;18084;53.028;8.834;2022-08-21T17:32:37;3.78;;;1.10;;
31454;SDS011;18084;53.028;8.834;2022-08-21T17:35:02;2.78;;;1.58;;
31454;SDS011;18084;53.028;8.834;2022-08-21T17:37:29;6.07;;;1.40;;
31454;SDS011;18084;53.028;8.834;2022-08-21T17:39:55;4.15;;;1.65;;
31454;SDS011;18084;53.028;8.834;2022-08-21T17:42:20;5.35;;;1.52;;
31454;SDS011;18084;53.028;8.834;2022-08-21T17:44:47;4.82;;;1.60;;
31454;SDS011;18084;53.028;8.834;2022-08-21T17:47:13;7.05;;;1.80;;
31454;SDS011;18084;53.028;8.834;2022-08-21T17:49:41;12.05;;;2.05;;
31454;SDS011;18084;53.028;8.834;2022-08-21T17:52:07;7.10;;;2.03;;
31454;SDS011;18084;53.028;8.834;2022-08-21T17:54:34;9.30;;;2.28;;
31454;SDS011;18084;53.028;8.834;2022-08-21T17:57:00;7.50;;;1.98;;
31454;SDS011;18084;53.028;8.834;2022-08-21T17:59:27;9.18;;;2.28;;
31454;SDS011;18084;53.028;8.834;2022-08-21T18:01:52;6.13;;;2.38;;
31454;SDS011;18084;53.028;8.834;2022-08-21T18:04:25;12.00;;;2.25;;
31454;SDS011;18084;53.028;8.834;2022-08-21T18:06:51;5.65;;;1.83;;
31454;SDS011;18084;53.028;8.834;2022-08-21T18:09:16;7.28;;;2.55;;
31454;SDS011;18084;53.028;8.834;2022-08-21T18:11:42;9.82;;;2.22;;
31454;SDS011;18084;53.028;8.834;2022-08-21T18:14:08;9.60;;;2.30;;
31454;SDS011;18084;53.028;8.834;2022-08-21T18:16:35;10.60;;;3.20;;
31454;SDS011;18084;53.028;8.834;2022-08-21T18:19:02;8.32;;;3.05;;
31454;SDS011;18084;53.028;8.834;2022-08-21T18:21:31;7.78;;;2.55;;
31454;SDS011;18084;53.028;8.834;2022-08-21T18:23:57;8.07;;;2.20;;
31454;SDS011;18084;53.028;8.834;2022-08-21T18:26:30;13.48;;;2.40;;
31454;SDS011;18084;53.028;8.834;2022-08-21T18:28:59;12.02;;;3.17;;
31454;SDS011;18084;53.028;8.834;2022-08-21T18:31:26;14.98;;;2.88;;
31454;SDS011;18084;53.028;8.834;2022-08-21T18:33:54;6.30;;;2.40;;
31454;SDS011;18084;53.028;8.834;2022-08-21T18:36:20;9.35;;;2.30;;
31454;SDS011;18084;53.028;8.834;2022-08-21T18:38:46;9.65;;;2.92;;
31454;SDS011;18084;53.028;8.834;2022-08-21T18:41:12;13.68;;;2.83;;
31454;SDS011;18084;53.028;8.834;2022-08-21T18:43:37;15.57;;;3.50;;
31454;SDS011;18084;53.028;8.834;2022-08-21T18:46:09;8.55;;;2.90;;
31454;SDS011;18084;53.028;8.834;2022-08-21T18:48:35;7.60;;;2.65;;
31454;SDS011;18084;53.028;8.834;2022-08-21T18:51:00;7.22;;;1.95;;
31454;SDS011;18084;53.028;8.834;2022-08-21T18:53:26;9.18;;;2.67;;
31454;SDS011;18084;53.028;8.834;2022-08-21T18:55:52;7.70;;;2.90;;
31454;SDS011;18084;53.028;8.834;2022-08-21T18:58:18;9.15;;;2.75;;
31454;SDS011;18084;53.028;8.834;2022-08-21T19:00:45;11.95;;;2.78;;
31454;SDS011;18084;53.028;8.834;2022-08-21T19:03:14;11.02;;;2.83;;
31454;SDS011;18084;53.028;8.834;2022-08-21T19:05:44;6.60;;;2.20;;
31454;SDS011;18084;53.028;8.834;2022-08-21T19:08:11;9.60;;;3.75;;
31454;SDS011;18084;53.028;8.834;2022-08-21T19:10:38;11.35;;;2.80;;
31454;SDS011;18084;53.028;8.834;2022-08-21T19:13:05;7.38;;;2.85;;
31454;SDS011;18084;53.028;8.834;2022-08-21T19:15:33;11.38;;;2.53;;
31454;SDS011;18084;53.028;8.834;2022-08-21T19:18:00;8.05;;;2.03;;
31454;SDS011;18084;53.028;8.834;2022-08-21T19:20:31;13.30;;;2.70;;
31454;SDS011;18084;53.028;8.834;2022-08-21T19:23:01;5.20;;;1.73;;
31454;SDS011;18084;53.028;8.834;2022-08-21T19:25:28;7.78;;;2.10;;
31454;SDS011;18084;53.028;8.834;2022-08-21T19:27:55;15.38;;;2.97;;
31454;SDS011;18084;53.028;8.834;2022-08-21T19:30:21;5.00;;;1.98;;
31454;SDS011;18084;53.028;8.834;2022-08-21T19:32:47;10.82;;;2.45;;
31454;SDS011;18084;53.028;8.834;2022-08-21T19:35:14;16.80;;;3.30;;
31454;SDS011;18084;53.028;8.834;2022-08-21T19:37:41;11.18;;;2.22;;
31454;SDS011;18084;53.028;8.834;2022-08-21T19:40:09;8.25;;;2.13;;
31454;SDS011;18084;53.028;8.834;2022-08-21T19:42:37;6.15;;;2.05;;
31454;SDS011;18084;53.028;8.834;2022-08-21T19:45:03;7.25;;;2.25;;
31454;SDS011;18084;53.028;8.834;2022-08-21T19:47:30;14.00;;;2.90;;
31454;SDS011;18084;53.028;8.834;2022-08-21T19:49:57;12.88;;;2.53;;
31454;SDS011;18084;53.028;8.834;2022-08-21T19:52:24;9.63;;;3.08;;
31454;SDS011;18084;53.028;8.834;2022-08-21T19:54:50;19.50;;;2.75;;
31454;SDS011;18084;53.028;8.834;2022-08-21T19:57:16;8.85;;;2.38;;
31454;SDS011;18084;53.028;8.834;2022-08-21T19:59:41;7.22;;;1.88;;
31454;SDS011;18084;53.028;8.834;2022-08-21T20:02:08;11.60;;;2.22;;
31454;SDS011;18084;53.028;8.834;2022-08-21T20:04:34;8.70;;;2.58;;
31454;SDS011;18084;53.028;8.834;2022-08-21T20:07:00;11.18;;;2.45;;
31454;SDS011;18084;53.028;8.834;2022-08-21T20:09:27;11.27;;;3.00;;
31454;SDS011;18084;53.028;8.834;2022-08-21T20:11:54;5.32;;;1.90;;
31454;SDS011;18084;53.028;8.834;2022-08-21T20:14:25;8.70;;;2.40;;
31454;SDS011;18084;53.028;8.834;2022-08-21T20:16:53;6.45;;;2.15;;
31454;SDS011;18084;53.028;8.834;2022-08-21T20:21:54;5.53;;;1.95;;
31454;SDS011;18084;53.028;8.834;2022-08-21T20:24:22;9.02;;;2.00;;
31454;SDS011;18084;53.028;8.834;2022-08-21T20:26:48;8.80;;;2.35;;
31454;SDS011;18084;53.028;8.834;2022-08-21T20:29:14;7.20;;;2.47;;
31454;SDS011;18084;53.028;8.834;2022-08-21T20:31:40;9.30;;;2.00;;